Time;durP1;ratioP1;P1;durP2;ratioP2;P2;SDS_P1;SDS_P2;PMS_P1;PMS_P2;Temp;Humidity;BMP_temperature;BMP_pressure;BME280_temperature;BME280_humidity;BME280_pressure;Samples;Min_cycle;Max_cycle;Signal;HPM_P1;HPM_P2
2022/02/21 00:00:14;;;;;;;5.80;3.97;;;;;;;16.29;33.34;98860.82;1766646;80;20905;-54
2022/02/21 00:02:43;;;;;;;7.85;3.85;;;;;;;16.32;33.49;98858.77;1765954;80;21763;-53
2022/02/21 00:05:11;;;;;;;5.78;3.55;;;;;;;16.46;33.41;98850.20;1770422;80;21363;-54
2022/02/21 00:07:38;;;;;;;5.45;3.75;;;;;;;16.61;33.19;98850.30;1761849;80;21591;-53
2022/02/21 00:10:08;;;;;;;5.17;3.95;;;;;;;16.49;33.26;98856.59;1756885;80;21400;-53
2022/02/21 00:12:37;;;;;;;6.03;4.37;;;;;;;16.45;33.21;98845.88;1771099;80;20869;-53
2022/02/21 00:15:05;;;;;;;6.75;5.10;;;;;;;16.27;33.38;98849.48;1770397;80;21477;-53
2022/02/21 00:17:33;;;;;;;8.05;4.65;;;;;;;16.08;33.77;98850.93;1743246;80;21485;-53
2022/02/21 00:19:59;;;;;;;8.63;4.33;;;;;;;15.98;33.82;98857.09;1766643;80;22565;-54
2022/02/21 00:22:26;;;;;;;8.20;4.28;;;;;;;15.94;33.95;98861.30;1761955;80;21474;-54
2022/02/21 00:24:53;;;;;;;8.23;3.92;;;;;;;15.92;33.58;98856.59;1771362;80;21526;-53
2022/02/21 00:27:21;;;;;;;7.03;4.00;;;;;;;16.07;33.75;98858.54;1768458;80;21350;-53
2022/02/21 00:29:48;;;;;;;;;;;;;;;16.02;33.87;98863.84;1771247;80;21402;-52
2022/02/21 00:32:15;;;;;;;7.10;4.17;;;;;;;15.91;33.93;98865.98;1771201;80;22714;-53
2022/02/21 00:34:43;;;;;;;7.37;4.30;;;;;;;15.80;33.78;98861.99;1769277;80;20992;-54
2022/02/21 00:37:10;;;;;;;13.43;5.67;;;;;;;16.01;33.39;98856.38;1769932;80;21409;-53
2022/02/21 00:39:36;;;;;;;8.30;5.55;;;;;;;15.85;33.37;98858.52;1771334;80;21589;-53
2022/02/21 00:42:05;;;;;;;5.60;4.42;;;;;;;15.68;33.56;98855.80;1771513;80;21556;-54
2022/02/21 00:44:32;;;;;;;9.23;5.25;;;;;;;15.61;33.65;98854.09;1749660;80;22469;-53
2022/02/21 00:47:00;;;;;;;6.87;4.75;;;;;;;15.54;33.88;98840.48;1755673;80;21459;-53
2022/02/21 00:49:27;;;;;;;10.38;5.12;;;;;;;15.53;34.10;98846.72;1762551;80;20993;-53
2022/02/21 00:51:53;;;;;;;7.10;4.33;;;;;;;15.55;33.98;98843.96;1768278;80;21509;-53
2022/02/21 00:54:21;;;;;;;6.85;4.75;;;;;;;15.50;34.26;98839.03;1759270;80;21542;-53
2022/02/21 00:56:48;;;;;;;9.73;4.50;;;;;;;15.74;34.05;98835.48;1762753;80;22450;-53
2022/02/21 00:59:16;;;;;;;7.10;4.33;;;;;;;15.61;34.14;98833.38;1753328;80;26193;-53
2022/02/21 01:01:43;;;;;;;5.70;4.43;;;;;;;15.55;34.11;98838.17;1741669;80;21426;-53
2022/02/21 01:04:10;;;;;;;7.00;5.25;;;;;;;15.45;34.25;98836.36;1752984;80;21084;-52
2022/02/21 01:06:36;;;;;;;6.85;4.42;;;;;;;15.30;34.34;98846.31;1745823;80;21554;-52
2022/02/21 01:09:03;;;;;;;7.53;4.62;;;;;;;15.16;34.42;98842.89;1755325;80;22480;-52
2022/02/21 01:11:30;;;;;;;9.10;4.72;;;;;;;15.11;34.95;98841.55;1761247;80;21503;-52
2022/02/21 01:13:58;;;;;;;6.80;4.40;;;;;;;15.02;35.00;98851.00;1752123;80;21460;-52
2022/02/21 01:16:27;;;;;;;7.72;4.47;;;;;;;15.02;35.27;98852.32;1762049;80;21513;-52
2022/02/21 01:18:54;;;;;;;6.70;5.20;;;;;;;15.03;35.39;98850.51;1762846;80;20982;-53
2022/02/21 01:21:20;;;;;;;7.37;4.60;;;;;;;15.00;35.44;98844.97;1760837;80;22731;-53
2022/02/21 01:23:47;;;;;;;6.70;4.78;;;;;;;15.02;35.20;98844.87;1762805;80;21372;-54
2022/02/21 01:26:13;;;;;;;8.65;4.15;;;;;;;15.06;35.30;98844.52;1750935;80;21592;-53
2022/02/21 01:28:40;;;;;;;7.95;4.25;;;;;;;14.92;35.28;98844.22;1760958;80;21481;-52
2022/02/21 01:31:07;;;;;;;6.42;4.22;;;;;;;14.83;35.88;98838.27;1742407;80;20990;-53
2022/02/21 01:33:33;;;;;;;10.53;4.35;;;;;;;14.96;35.63;98829.80;1762448;80;22565;-53
2022/02/21 01:36:00;;;;;;;9.13;4.47;;;;;;;14.83;35.75;98830.34;1762413;80;21407;-52
2022/02/21 01:38:27;;;;;;;4.67;4.03;;;;;;;14.76;35.90;98821.98;1749435;80;21533;-53
2022/02/21 01:40:53;;;;;;;9.90;4.58;;;;;;;14.67;36.03;98824.46;1747843;80;21550;-53
2022/02/21 01:43:20;;;;;;;4.83;4.25;;;;;;;14.74;35.75;98819.09;1761710;80;21347;-52
2022/02/21 01:45:46;;;;;;;6.28;4.33;;;;;;;14.65;36.09;98813.98;1742689;80;22728;-52
2022/02/21 01:48:13;;;;;;;7.33;4.60;;;;;;;14.77;36.20;98807.81;1755596;80;21525;-53
2022/02/21 01:50:40;;;;;;;6.45;4.67;;;;;;;14.74;36.15;98811.16;1762566;80;21562;-53
2022/02/21 01:53:06;;;;;;;5.58;4.60;;;;;;;14.72;36.22;98818.37;1754578;80;21581;-53
2022/02/21 01:55:33;;;;;;;8.13;4.83;;;;;;;14.65;36.20;98813.98;1758554;80;21540;-51
2022/02/21 01:58:00;;;;;;;7.28;4.85;;;;;;;14.57;36.38;98817.19;1758553;80;22453;-53
2022/02/21 02:00:27;;;;;;;7.72;4.33;;;;;;;14.55;36.64;98819.56;1762604;80;21479;-52
2022/02/21 02:02:55;;;;;;;7.22;4.42;;;;;;;14.63;36.56;98818.55;1762424;80;20994;-52
2022/02/21 02:05:25;;;;;;;6.85;4.22;;;;;;;14.66;36.54;98811.72;1753992;80;21458;-53
2022/02/21 02:07:53;;;;;;;8.23;4.90;;;;;;;14.60;36.49;98801.11;1755380;80;21483;-53
2022/02/21 02:10:21;;;;;;;6.35;4.42;;;;;;;14.32;37.01;98798.26;1757982;80;22580;-54
2022/02/21 02:12:48;;;;;;;9.75;4.58;;;;;;;14.28;37.30;98802.08;1710145;80;21387;-52
2022/02/21 02:15:17;;;;;;;6.28;4.40;;;;;;;14.44;36.95;98798.33;1760493;80;21562;-52
2022/02/21 02:17:44;;;;;;;7.70;4.53;;;;;;;14.53;36.88;98798.98;1753787;80;21474;-53
2022/02/21 02:20:11;;;;;;;8.93;4.83;;;;;;;14.54;36.67;98804.17;1738803;80;21372;-52
2022/02/21 02:22:38;;;;;;;10.55;5.15;;;;;;;14.39;36.73;98803.48;1692975;84;22484;-52
2022/02/21 02:25:06;;;;;;;6.65;4.83;;;;;;;14.41;36.73;98805.53;1737465;80;21475;-52
2022/02/21 02:27:32;;;;;;;;;;;;;;;14.27;36.63;98799.05;1754557;80;21408;-52
2022/02/21 02:30:00;;;;;;;8.08;4.72;;;;;;;14.27;37.10;98797.73;1756912;80;21104;-53
2022/02/21 02:32:26;;;;;;;5.92;4.12;;;;;;;14.25;37.10;98795.68;1753865;80;22826;-55
2022/02/21 02:34:53;;;;;;;9.58;5.08;;;;;;;14.34;36.84;98800.31;1743645;80;22530;-53
2022/02/21 02:37:22;;;;;;;10.10;5.22;;;;;;;14.06;37.29;98796.14;1761876;80;20867;-53
2022/02/21 02:39:49;;;;;;;5.72;4.65;;;;;;;13.79;38.15;98797.13;1758500;80;21511;-52
2022/02/21 02:42:16;;;;;;;5.43;4.30;;;;;;;13.83;37.96;98789.35;1762108;80;21564;-53
2022/02/21 02:44:42;;;;;;;5.77;4.03;;;;;;;13.98;37.85;98791.40;1763152;80;21481;-53
2022/02/21 02:47:12;;;;;;;8.23;4.95;;;;;;;14.00;37.88;98793.45;1752273;80;22365;-52
2022/02/21 02:49:39;;;;;;;7.62;4.50;;;;;;;13.89;37.96;98796.01;1748858;80;20948;-53
2022/02/21 02:52:06;;;;;;;8.13;4.80;;;;;;;13.84;38.17;98786.23;1751250;80;21526;-54
2022/02/21 02:54:33;;;;;;;;;;;;;;;14.05;37.93;98787.00;1725939;80;21466;-53
2022/02/21 02:56:59;;;;;;;7.22;4.37;;;;;;;13.99;38.04;98783.86;1715992;80;20371;-53
2022/02/21 02:59:26;;;;;;;6.20;4.70;;;;;;;13.58;38.58;98791.54;1712159;83;22490;-55
2022/02/21 03:01:54;;;;;;;6.08;3.92;;;;;;;13.85;38.19;98786.61;1714677;80;21435;-53
2022/02/21 03:04:20;;;;;;;;;;;;;;;13.95;38.04;98783.67;1719689;80;21486;-52
2022/02/21 03:06:47;;;;;;;5.30;4.50;;;;;;;13.99;38.17;98790.46;1711933;80;20802;-54
2022/02/21 03:09:14;;;;;;;7.50;4.33;;;;;;;14.00;37.93;98780.73;1716334;82;22042;-53
2022/02/21 03:11:41;;;;;;;8.38;5.10;;;;;;;13.59;38.54;98786.61;1714595;83;22509;-53
2022/02/21 03:14:07;;;;;;;7.45;4.25;;;;;;;13.91;38.15;98780.89;1704913;80;21185;-54
2022/02/21 03:16:34;;;;;;;6.70;4.70;;;;;;;13.88;38.75;98779.80;1716961;81;21509;-53
2022/02/21 03:19:01;;;;;;;6.92;4.75;;;;;;;13.75;38.84;98774.52;1716077;80;21415;-53
2022/02/21 03:21:27;;;;;;;6.70;4.47;;;;;;;13.94;38.44;98775.40;1714828;80;21029;-54
2022/02/21 03:23:54;;;;;;;6.28;4.58;;;;;;;13.96;38.57;98768.20;1716489;80;22426;-53
2022/02/21 03:26:21;;;;;;;6.95;4.20;;;;;;;13.97;38.38;98775.65;1715120;83;21566;-54
2022/02/21 03:28:47;;;;;;;9.48;4.67;;;;;;;14.06;38.33;98768.39;1696594;82;21028;-54
2022/02/21 03:31:16;;;;;;;5.70;4.45;;;;;;;13.94;38.53;98760.86;1715993;83;21415;-53
2022/02/21 03:33:43;;;;;;;5.60;4.30;;;;;;;14.05;38.07;98756.59;1701820;83;21521;-53
2022/02/21 03:36:10;;;;;;;8.23;4.75;;;;;;;13.78;38.53;98750.52;1717047;80;22495;-54
2022/02/21 03:38:37;;;;;;;6.65;4.62;;;;;;;13.63;38.90;98744.98;1717214;83;21530;-54
2022/02/21 03:41:03;;;;;;;4.70;3.67;;;;;;;13.87;38.79;98745.55;1713387;82;21529;-54
2022/02/21 03:43:31;;;;;;;;;;;;;;;13.96;38.55;98752.83;1713995;80;21472;-54
2022/02/21 03:45:58;;;;;;;6.97;3.87;;;;;;;14.27;38.23;98739.56;1684560;82;20449;-54
2022/02/21 03:48:24;;;;;;;6.28;4.45;;;;;;;14.41;37.75;98734.62;1717530;80;22518;-53
2022/02/21 03:50:51;;;;;;;10.07;4.33;;;;;;;14.18;37.96;98726.55;1715413;82;21399;-53
2022/02/21 03:53:18;;;;;;;4.58;3.83;;;;;;;13.97;38.63;98734.69;1717542;80;21621;-54
2022/02/21 03:55:45;;;;;;;4.62;3.90;;;;;;;14.14;38.72;98739.60;1700894;82;21478;-54
2022/02/21 03:58:12;;;;;;;6.05;3.75;;;;;;;14.23;38.48;98735.46;1680220;83;21057;-53
2022/02/21 04:00:38;;;;;;;7.20;4.62;;;;;;;14.26;38.23;98736.58;1694644;83;22532;-53
2022/02/21 04:03:06;;;;;;;7.15;3.95;;;;;;;14.17;38.35;98733.27;1746236;80;21542;-55
2022/02/21 04:07:52;;;;;;;7.03;4.20;;;;;;;11.30;46.51;98733.61;1780890;78;23332;-55
2022/02/21 04:10:19;;;;;;;9.20;5.40;;;;;;;13.63;39.64;98726.02;1731121;80;21498;-54
2022/02/21 04:12:46;;;;;;;5.35;3.90;;;;;;;13.75;39.37;98719.50;1743884;80;22449;-54
2022/02/21 04:15:12;;;;;;;7.87;3.97;;;;;;;13.70;39.46;98717.20;1733959;80;21411;-55
2022/02/21 04:17:48;;;;;;;6.97;3.80;;;;;;;14.10;38.93;98709.06;1740651;81;21444;-55
2022/02/21 04:20:17;;;;;;;12.25;5.60;;;;;;;14.29;38.61;98703.28;1736364;80;21069;-56
2022/02/21 04:22:44;;;;;;;7.97;5.08;;;;;;;14.08;38.66;98699.08;1726863;80;21572;-55
2022/02/21 04:25:12;;;;;;;6.97;4.50;;;;;;;14.24;38.37;98702.80;1741844;80;22512;-54
2022/02/21 04:27:48;;;;;;;9.33;5.12;;;;;;;14.21;38.48;98689.78;1711138;83;21407;-55
2022/02/21 04:30:18;;;;;;;7.17;4.80;;;;;;;14.38;38.44;98692.03;1706092;83;21576;-52
2022/02/21 04:32:46;;;;;;;15.80;6.33;;;;;;;14.44;38.21;98673.55;1703612;83;21421;-53
2022/02/21 04:35:14;;;;;;;14.75;9.93;;;;;;;14.50;37.96;98671.76;1708517;82;21516;-54
2022/02/21 04:37:41;;;;;;;14.13;8.75;;;;;;;14.53;37.97;98687.41;1690589;83;22825;-54
2022/02/21 04:40:10;;;;;;;14.50;6.77;;;;;;;14.48;38.17;98679.45;1706544;83;21390;-54
2022/02/21 04:42:37;;;;;;;10.55;7.10;;;;;;;14.91;37.61;98674.94;1705770;83;21414;-55
2022/02/21 04:45:04;;;;;;;9.33;6.65;;;;;;;14.87;37.46;98673.01;1707426;81;21064;-54
2022/02/21 04:47:31;;;;;;;11.05;6.15;;;;;;;14.73;37.56;98674.52;1707019;83;21533;-54
2022/02/21 04:49:58;;;;;;;14.58;8.75;;;;;;;14.83;37.38;98666.27;1703188;83;22514;-55
2022/02/21 04:52:25;;;;;;;15.83;7.97;;;;;;;14.61;37.72;98672.32;1692958;82;21507;-54
2022/02/21 04:54:53;;;;;;;18.20;10.05;;;;;;;14.86;37.42;98676.63;1692762;83;21566;-51
2022/02/21 04:57:19;;;;;;;17.70;11.68;;;;;;;14.90;37.28;98675.43;1690394;82;21391;-54
2022/02/21 04:59:46;;;;;;;16.42;10.82;;;;;;;14.41;37.88;98675.95;1698086;82;21454;-54
2022/02/21 05:02:13;;;;;;;21.52;9.85;;;;;;;14.76;37.44;98679.10;1704355;83;22456;-55
2022/02/21 05:04:40;;;;;;;17.65;10.40;;;;;;;14.87;37.11;98676.14;1695551;82;21398;-55
2022/02/21 05:07:07;;;;;;;10.03;5.50;;;;;;;14.58;37.87;98674.73;1689902;82;21407;-52
2022/02/21 05:09:34;;;;;;;5.87;4.20;;;;;;;15.05;37.12;98671.23;1690482;82;21525;-51
2022/02/21 05:12:01;;;;;;;5.35;4.28;;;;;;;14.51;37.70;98671.30;1690649;82;20945;-57
2022/02/21 05:14:28;;;;;;;9.70;5.65;;;;;;;14.75;37.25;98673.95;1695624;82;21575;-53
2022/02/21 05:16:55;;;;;;;6.22;4.35;;;;;;;14.99;36.78;98672.55;1698063;83;21490;-52
2022/02/21 05:19:23;;;;;;;6.80;4.60;;;;;;;14.83;37.19;98669.40;1695325;82;21625;-52
2022/02/21 05:21:49;;;;;;;9.53;4.78;;;;;;;14.90;37.15;98670.59;1680954;82;20914;-51
2022/02/21 05:24:16;;;;;;;5.90;4.00;;;;;;;15.31;36.25;98676.70;1687873;82;21014;-51
2022/02/21 05:26:43;;;;;;;8.63;5.20;;;;;;;15.37;35.96;98665.63;1693198;82;22452;-52
2022/02/21 05:29:09;;;;;;;7.58;4.92;;;;;;;15.12;36.31;98658.72;1676423;84;21352;-51
2022/02/21 05:31:36;;;;;;;6.47;4.17;;;;;;;15.21;36.14;98662.97;1677611;83;21538;-51
2022/02/21 05:34:03;;;;;;;8.93;5.40;;;;;;;14.96;36.63;98652.95;1687062;82;21047;-52
2022/02/21 05:36:30;;;;;;;6.05;4.45;;;;;;;15.40;35.99;98659.23;1685263;82;20884;-52
2022/02/21 05:38:56;;;;;;;6.03;4.62;;;;;;;15.33;35.93;98655.38;1687218;82;21573;-52
2022/02/21 05:41:23;;;;;;;6.28;4.55;;;;;;;15.33;35.92;98655.38;1696253;82;21503;-53
2022/02/21 05:43:49;;;;;;;13.20;5.50;;;;;;;15.23;35.88;98654.42;1681069;82;21376;-50
2022/02/21 05:46:16;;;;;;;8.30;4.20;;;;;;;14.56;36.78;98659.87;1684710;83;21492;-52
2022/02/21 05:48:43;;;;;;;7.97;4.60;;;;;;;14.98;36.45;98658.96;1692180;82;21428;-50
2022/02/21 05:51:09;;;;;;;9.98;5.05;;;;;;;15.02;36.35;98652.47;1685820;82;22875;-52
2022/02/21 05:53:41;;;;;;;8.33;5.15;;;;;;;15.23;35.67;98652.61;1675023;83;21543;-50
2022/02/21 05:56:05;;;;;;;9.85;4.97;;;;;;;15.15;35.89;98653.20;1687899;82;21466;-51
2022/02/21 05:58:33;;;;;;;7.95;5.00;;;;;;;15.30;35.64;98646.37;1678168;84;21392;-52
2022/02/21 06:01:00;;;;;;;5.85;4.80;;;;;;;15.14;35.96;98644.05;1678626;82;21471;-53
2022/02/21 06:03:26;;;;;;;6.10;4.55;;;;;;;14.93;36.54;98646.06;1691380;83;22396;-51
2022/02/21 06:05:53;;;;;;;8.53;4.57;;;;;;;15.34;35.75;98649.13;1692067;84;21511;-51
2022/02/21 06:08:20;;;;;;;5.85;4.60;;;;;;;15.33;35.69;98650.08;1670004;82;21365;-50
2022/02/21 06:10:47;;;;;;;9.28;5.10;;;;;;;15.12;35.93;98644.16;1675142;83;21477;-52
2022/02/21 06:13:14;;;;;;;4.90;4.40;;;;;;;15.30;35.55;98641.91;1686289;83;21407;-51
2022/02/21 06:15:41;;;;;;;6.05;5.03;;;;;;;15.17;35.67;98638.04;1674047;83;22550;-52
2022/02/21 06:18:08;;;;;;;7.97;4.17;;;;;;;15.14;35.74;98633.00;1687100;83;20994;-50
2022/02/21 06:20:34;;;;;;;5.55;4.47;;;;;;;15.08;35.77;98630.81;1673743;83;21034;-49
2022/02/21 06:23:01;;;;;;;8.20;5.25;;;;;;;15.47;35.26;98632.62;1684569;83;20910;-49
2022/02/21 06:25:28;;;;;;;12.13;4.95;;;;;;;15.23;35.57;98625.30;1682238;83;21447;-50
2022/02/21 06:27:54;;;;;;;8.68;4.42;;;;;;;15.08;35.47;98628.16;1685144;83;22517;-51
2022/02/21 06:30:21;;;;;;;7.37;4.78;;;;;;;15.26;35.35;98619.77;1674065;83;21352;-54
2022/02/21 06:32:48;;;;;;;5.90;4.92;;;;;;;15.29;35.23;98614.22;1680384;83;21507;-53
2022/02/21 06:35:15;;;;;;;6.25;4.25;;;;;;;15.39;35.02;98615.19;1678906;83;20884;-54
2022/02/21 06:37:49;;;;;;;8.13;4.27;;;;;;;15.11;35.49;98604.59;1687888;83;21038;-52
2022/02/21 06:40:16;;;;;;;6.80;4.78;;;;;;;15.78;34.58;98609.00;1674532;83;22827;-50
2022/02/21 06:42:43;;;;;;;7.20;4.05;;;;;;;15.62;34.53;98606.73;1680505;83;21521;-52
2022/02/21 06:45:10;;;;;;;7.37;4.50;;;;;;;15.06;35.32;98603.61;1679493;83;21554;-52
2022/02/21 06:47:37;;;;;;;7.67;4.17;;;;;;;15.70;34.33;98596.34;1683249;83;20994;-52
2022/02/21 06:50:06;;;;;;;7.60;4.60;;;;;;;15.42;34.68;98592.91;1683434;83;20978;-51
2022/02/21 06:52:33;;;;;;;8.20;5.05;;;;;;;14.74;35.54;98588.91;1681305;83;22707;-51
2022/02/21 06:55:01;;;;;;;5.45;4.37;;;;;;;15.50;34.74;98586.50;1675174;83;27322;-51
2022/02/21 06:57:28;;;;;;;6.15;4.28;;;;;;;15.72;34.36;98591.77;1681211;83;21424;-51
2022/02/21 06:59:54;;;;;;;8.25;4.90;;;;;;;15.49;35.14;98591.45;1689033;81;21430;-51
2022/02/21 07:02:21;;;;;;;6.10;4.15;;;;;;;15.79;34.32;98590.83;1687197;83;21361;-50
2022/02/21 07:04:48;;;;;;;7.08;4.08;;;;;;;15.17;34.99;98589.05;1687923;83;22504;-52
2022/02/21 07:07:15;;;;;;;4.95;3.90;;;;;;;16.00;33.83;98582.09;1687324;83;21379;-51
2022/02/21 07:09:42;;;;;;;8.53;4.57;;;;;;;15.81;34.03;98583.59;1679405;83;21439;-51
2022/02/21 07:12:09;;;;;;;5.27;4.07;;;;;;;16.04;33.78;98577.73;1682152;83;21551;-52
2022/02/21 07:14:36;;;;;;;5.72;3.85;;;;;;;16.13;33.61;98576.14;1678150;83;21588;-51
2022/02/21 07:17:04;;;;;;;7.00;4.37;;;;;;;15.51;34.42;98578.44;1677653;83;22513;-51
2022/02/21 07:19:31;;;;;;;4.97;3.65;;;;;;;15.75;34.38;98583.61;1726344;81;21572;-52
2022/02/21 07:21:59;;;;;;;5.83;4.12;;;;;;;15.72;33.94;98579.00;1724597;81;21488;-53
2022/02/21 07:24:25;;;;;;;;;;;;;;;15.91;33.77;98580.54;1726933;80;21461;-55
2022/02/21 07:26:52;;;;;;;4.33;3.47;;;;;;;15.89;33.74;98573.69;1723453;80;20425;-55
2022/02/21 07:29:18;;;;;;;7.33;4.42;;;;;;;15.66;33.94;98574.20;1726575;81;22755;-52
2022/02/21 07:31:45;;;;;;;8.95;4.80;;;;;;;15.65;34.03;98569.86;1705169;82;20973;-53
2022/02/21 07:34:12;;;;;;;6.85;4.10;;;;;;;15.89;33.73;98567.89;1701747;82;21426;-52
2022/02/21 07:36:38;;;;;;;6.45;4.42;;;;;;;15.99;33.43;98571.95;1703245;82;21250;-55
2022/02/21 07:39:05;;;;;;;6.78;4.58;;;;;;;15.07;34.90;98588.11;1702340;82;21454;-53
2022/02/21 07:41:32;;;;;;;6.10;4.57;;;;;;;15.55;34.20;98573.25;1725866;80;22498;-54
2022/02/21 07:43:59;;;;;;;7.65;4.95;;;;;;;16.14;33.27;98573.83;1730932;81;21490;-51
2022/02/21 07:46:26;;;;;;;6.92;5.08;;;;;;;15.85;33.56;98573.59;1724882;81;21468;-52
2022/02/21 07:48:53;;;;;;;8.75;4.55;;;;;;;15.28;34.09;98561.74;1733210;80;21589;-54
2022/02/21 07:51:20;;;;;;;6.97;4.37;;;;;;;15.91;33.49;98559.83;1734804;80;20902;-55
2022/02/21 07:53:47;;;;;;;7.25;4.10;;;;;;;16.35;32.82;98544.70;1718112;81;22831;-52
2022/02/21 07:56:14;;;;;;;5.70;4.60;;;;;;;15.85;33.54;98549.24;1739559;81;27566;-54
2022/02/21 07:58:41;;;;;;;7.17;4.85;;;;;;;16.42;32.84;98547.66;1725595;80;21411;-54
2022/02/21 08:01:07;;;;;;;7.30;4.70;;;;;;;16.18;32.94;98550.09;1731429;81;21467;-52
2022/02/21 08:03:37;;;;;;;7.90;5.25;;;;;;;16.57;32.47;98550.34;1724667;81;21445;-53
2022/02/21 08:06:07;;;;;;;;;;;;;;;16.33;32.81;98543.50;1721585;80;22789;-53
2022/02/21 08:08:33;;;;;;;6.60;4.87;;;;;;;16.17;32.92;98549.72;1720036;81;20460;-52
2022/02/21 08:11:00;;;;;;;9.68;4.58;;;;;;;16.52;32.51;98547.26;1729366;80;21521;-52
2022/02/21 08:13:28;;;;;;;9.23;5.83;;;;;;;16.44;32.56;98548.38;1731258;80;21021;-52
2022/02/21 08:15:55;;;;;;;7.45;5.30;;;;;;;17.02;31.84;98550.05;1733319;80;21380;-53
2022/02/21 08:18:22;;;;;;;11.15;5.20;;;;;;;17.00;31.99;98547.18;1737370;80;22474;-55
2022/02/21 08:20:48;;;;;;;7.87;4.58;;;;;;;16.73;31.99;98553.87;1731455;80;21494;-52
2022/02/21 08:23:15;;;;;;;8.23;4.53;;;;;;;16.99;31.56;98549.00;1732684;80;21406;-54
2022/02/21 08:25:42;;;;;;;5.83;4.40;;;;;;;17.05;31.49;98537.01;1701761;83;20885;-54
2022/02/21 08:28:09;;;;;;;6.72;3.65;;;;;;;16.74;31.70;98533.84;1692291;82;21446;-52
2022/02/21 08:30:36;;;;;;;7.22;4.28;;;;;;;16.38;32.11;98534.30;1696272;83;22512;-54
2022/02/21 08:33:03;;;;;;;7.58;4.40;;;;;;;17.37;31.14;98532.84;1698385;83;21368;-52
2022/02/21 08:35:30;;;;;;;7.20;4.50;;;;;;;16.96;31.40;98539.97;1725578;80;21434;-52
2022/02/21 08:37:56;;;;;;;6.53;4.33;;;;;;;17.24;31.11;98520.30;1733180;80;21447;-54
2022/02/21 08:40:24;;;;;;;6.40;4.00;;;;;;;17.62;30.69;98519.53;1735538;80;22077;-54
2022/02/21 08:42:51;;;;;;;;;;;;;;;17.66;30.57;98528.91;1737630;80;22464;-54
2022/02/21 08:45:17;;;;;;;5.45;4.05;;;;;;;17.56;30.50;98529.39;1732201;80;21160;-55
2022/02/21 08:47:45;;;;;;;4.92;3.60;;;;;;;17.51;30.52;98531.11;1732221;80;21472;-50
2022/02/21 08:50:14;;;;;;;10.60;6.03;;;;;;;17.78;30.22;98538.08;1699701;80;21736;-51
2022/02/21 08:52:42;;;;;;;11.78;5.80;;;;;;;17.80;30.31;98509.53;1700819;83;21324;-53
2022/02/21 08:55:10;;;;;;;6.00;4.10;;;;;;;17.91;30.19;98508.10;1705832;83;22480;-49
2022/02/21 08:57:37;;;;;;;7.12;3.70;;;;;;;17.86;30.13;98508.53;1692753;82;21498;-51
2022/02/21 09:00:06;;;;;;;7.67;3.90;;;;;;;16.97;30.83;98500.51;1700276;82;21535;-53
2022/02/21 09:02:35;;;;;;;6.17;3.77;;;;;;;18.21;29.75;98495.13;1664493;83;21490;-53
2022/02/21 09:05:03;;;;;;;9.70;3.40;;;;;;;18.01;29.86;98493.00;1702393;82;20977;-55
2022/02/21 09:07:31;;;;;;;5.05;3.95;;;;;;;18.07;29.55;98487.11;1696316;83;22803;-51
2022/02/21 09:09:59;;;;;;;4.20;2.80;;;;;;;17.71;30.11;98481.48;1681443;83;21312;-51
2022/02/21 09:12:26;;;;;;;7.20;3.45;;;;;;;18.65;28.89;98482.66;1692094;81;21466;-52
2022/02/21 09:14:56;;;;;;;31.90;19.32;;;;;;;18.80;28.74;98471.05;1729265;80;21334;-51
2022/02/21 09:17:21;;;;;;;13.53;10.95;;;;;;;18.62;28.98;98477.11;1725566;80;21391;-52
2022/02/21 09:19:47;;;;;;;9.45;4.67;;;;;;;18.85;28.66;98475.45;1710240;82;21518;-53
2022/02/21 09:22:14;;;;;;;20.37;18.73;;;;;;;18.25;28.99;98465.95;1729128;80;21451;-51
2022/02/21 09:24:41;;;;;;;4.85;3.62;;;;;;;18.13;29.18;98467.59;1722831;80;21435;-54
2022/02/21 09:27:08;;;;;;;5.22;4.33;;;;;;;18.49;28.79;98458.80;1698538;82;21498;-51
2022/02/21 09:29:35;;;;;;;6.35;4.78;;;;;;;18.02;29.31;98453.44;1690072;82;21390;-54
2022/02/21 09:32:02;;;;;;;6.20;4.42;;;;;;;18.85;28.72;98458.14;1705430;82;22806;-53
2022/02/21 09:34:29;;;;;;;9.23;7.25;;;;;;;19.13;28.41;98459.48;1724371;80;20915;-55
2022/02/21 09:36:55;;;;;;;39.60;35.30;;;;;;;18.92;28.45;98452.58;1731873;80;21537;-50
2022/02/21 09:39:22;;;;;;;10.55;8.83;;;;;;;18.72;28.34;98450.95;1733000;80;21450;-54
2022/02/21 09:41:49;;;;;;;4.62;3.83;;;;;;;18.77;28.55;98452.69;1727419;80;21590;-52
2022/02/21 09:44:17;;;;;;;10.08;8.20;;;;;;;18.93;28.80;98447.61;1724211;80;22514;-53
2022/02/21 09:46:44;;;;;;;11.55;9.40;;;;;;;18.93;28.80;98447.61;1722775;80;21466;-55
2022/02/21 09:49:11;;;;;;;10.80;7.75;;;;;;;18.98;28.37;98443.98;1724017;80;21395;-54
2022/02/21 09:51:38;;;;;;;70.72;64.47;;;;;;;18.99;28.28;98442.19;1723781;80;21363;-55
2022/02/21 09:54:04;;;;;;;46.90;30.32;;;;;;;19.05;28.31;98446.91;1722834;80;21439;-56
2022/02/21 09:56:31;;;;;;;49.55;26.42;;;;;;;19.59;27.92;98437.16;1722771;80;22481;-55
2022/02/21 09:58:57;;;;;;;35.55;21.12;;;;;;;19.22;27.97;98436.77;1716339;80;21565;-49
2022/02/21 10:01:24;;;;;;;135.63;112.65;;;;;;;18.68;28.51;98441.95;1731165;80;21473;-54
2022/02/21 10:03:54;;;;;;;55.33;28.77;;;;;;;18.90;28.26;98438.58;1722325;80;21431;-53
2022/02/21 10:06:26;;;;;;;96.00;48.75;;;;;;;19.04;27.90;98434.56;1665087;83;21395;-51
2022/02/21 10:09:04;;;;;;;201.18;133.18;;;;;;;19.08;27.83;98432.45;1733970;80;22481;-51
2022/02/21 10:11:32;;;;;;;43.48;23.70;;;;;;;19.13;27.93;98432.34;1748408;80;21492;-52
2022/02/21 10:14:02;;;;;;;27.65;16.65;;;;;;;18.97;27.99;98430.34;1746810;80;21517;-51
2022/02/21 10:16:50;;;;;;;50.83;30.10;;;;;;;18.89;28.19;98424.90;1747848;80;21623;-53
2022/02/21 10:19:35;;;;;;;26.85;16.45;;;;;;;18.94;28.02;98424.47;1733570;80;21520;-47
2022/02/21 10:22:11;;;;;;;83.20;66.25;;;;;;;19.01;28.11;98410.41;1743397;80;22711;-48
2022/02/21 10:24:46;;;;;;;49.33;25.52;;;;;;;19.23;28.07;98414.48;1742714;80;21613;-50
2022/02/21 10:27:21;;;;;;;60.88;29.18;;;;;;;19.45;27.67;98399.02;1743237;80;21500;-49
2022/02/21 10:30:11;;;;;;;97.30;65.65;;;;;;;19.18;28.01;98406.59;1754618;80;20932;-49
2022/02/21 10:32:39;;;;;;;30.02;15.93;;;;;;;19.55;27.73;98388.27;1667318;83;21494;-48
2022/02/21 10:35:17;;;;;;;17.42;10.55;;;;;;;19.20;27.66;98399.29;1684880;83;22441;-51
2022/02/21 10:37:58;;;;;;;;;;;;;;;19.28;27.85;98390.53;1690258;82;21580;-52
2022/02/21 10:40:39;;;;;;;38.55;20.25;;;;;;;18.94;28.21;98395.17;1681950;83;20208;-51
2022/02/21 10:43:11;;;;;;;73.05;35.58;;;;;;;18.64;28.48;98400.61;1686171;82;29191;-52
2022/02/21 10:45:39;;;;;;;52.65;25.95;;;;;;;18.32;29.14;98394.88;1688685;83;21409;-53
2022/02/21 10:48:10;;;;;;;155.82;116.17;;;;;;;18.77;28.63;98391.45;1687701;82;22480;-51
2022/02/21 10:50:57;;;;;;;53.13;25.62;;;;;;;19.25;28.03;98389.02;1697097;83;21347;-54
2022/02/21 10:53:24;;;;;;;38.05;20.82;;;;;;;19.69;27.71;98388.25;1687795;82;21501;-57
2022/02/21 10:55:53;;;;;;;40.67;19.10;;;;;;;19.49;28.00;98379.56;1685966;82;21173;-53
2022/02/21 10:58:23;;;;;;;147.10;101.02;;;;;;;19.75;27.75;98374.31;1694043;82;21457;-54
2022/02/21 11:00:50;;;;;;;31.42;16.67;;;;;;;19.97;27.38;98376.98;1688505;83;22425;-53
2022/02/21 11:03:19;;;;;;;19.75;11.88;;;;;;;19.61;27.52;98378.35;1686953;83;21399;-53
2022/02/21 11:05:47;;;;;;;20.45;12.25;;;;;;;20.34;27.02;98374.05;1686775;83;20979;-54
2022/02/21 11:08:16;;;;;;;134.65;110.65;;;;;;;19.35;27.91;98375.63;1683017;83;20901;-53
2022/02/21 11:10:43;;;;;;;50.23;25.65;;;;;;;20.30;27.08;98361.16;1687089;83;21572;-53
2022/02/21 11:13:15;;;;;;;19.52;9.48;;;;;;;19.69;27.59;98374.41;1677211;83;22827;-55
2022/02/21 11:15:40;;;;;;;21.10;11.08;;;;;;;19.48;27.71;98368.08;1680334;83;21442;-55
2022/02/21 11:18:12;;;;;;;18.60;13.98;;;;;;;19.65;27.76;98360.55;1684744;83;21501;-54
2022/02/21 11:20:37;;;;;;;23.80;19.10;;;;;;;19.21;28.18;98359.65;1676112;84;21671;-54
2022/02/21 11:23:06;;;;;;;35.10;18.48;;;;;;;19.57;27.81;98359.63;1679209;83;21405;-55
2022/02/21 11:25:56;;;;;;;25.60;15.25;;;;;;;19.90;27.57;98358.59;1686115;83;21544;-54
2022/02/21 11:28:52;;;;;;;24.75;14.07;;;;;;;19.71;27.90;98351.59;1681362;83;21521;-51
2022/02/21 11:31:32;;;;;;;62.58;45.55;;;;;;;19.50;28.04;98359.43;1681582;83;20913;-52
2022/02/21 11:34:03;;;;;;;65.72;32.03;;;;;;;19.34;28.51;98351.28;1667914;84;21336;-51
2022/02/21 11:36:31;;;;;;;21.73;12.43;;;;;;;19.26;28.53;98356.05;1671301;83;21481;-51